Terminal Aerodrome Forecast
Issued by NWS Pueblo, CO

Home | Current Version | Previous Version | Text Only | Print | Product List | Glossary On
Versions: 1 2 3 4 5 6 7 8 9 10 11 12 13 14 15 16 17
000
FTUS45 KPUB 231904 AAA
TAFALS
TAF AMD
KALS 231904Z 2319/2418 18014G24KT P6SM SCT200
     FM232100 24015G25KT P6SM SCT200
     FM240100 23012KT P6SM FEW110 SCT200
     FM241500 22015G25KT P6SM SCT200=

USA.gov is the U.S. government's official web portal to all federal, state and local government web resources and services.